Relevés horaires Koksijde (Belgique)


Relevés horaires à Koksijde - Samedi 27 Mai 2023
Heure UTC1 Température [°C] Vent [km/h] Hum. [%] Pres.4 [hPa] Visi. [Km] Nébu. [octa] Préc.5 [mm] Cond.
2m. Res. Ros. Dir.2 Vit. Moy. Raf.3
23:00 11.2 11.2 10.1 NNE 3.7 -- 5.6 93 1021.8(-0.6/3h) 8 -- -- --
20:00 12.4 12.3 10.6 N 5.6 -- 11.1 89 1022.5(-0.2/3h) 12 -- -- --
19:00 13.6 13.3 10.6 N 7.4 -- 13.0 82 1022.6(-0.7/3h) 14 -- -- --
18:00 14.4 14 10.5 N 9.3 -- 18.5 77 1022.6(-1.0/3h) 14 -- -- --
17:00 15.1 14.6 11.0 NNE 11.1 -- 14.8 76 1022.7(-1.2/3h) 20 -- -- --
16:00 15.4 15 10.7 N 11.1 -- 16.7 74 1023.3(-1.0/3h) 17 -- -- --
15:00 15.2 14.5 10.5 N 13.0 -- 18.5 74 1023.7(-1.2/3h) 18 -- -- --
14:00 15.6 15 10.5 N 13.0 -- 18.5 72 1024(-1.5/3h) 15 -- -- --
13:00 15.5 14.7 10.4 N 14.8 -- 18.5 72 1024.5(-1.4/3h) 11 -- -- --
12:00 15.4 14.8 10.3 N 13.0 -- 18.5 72 1025(-1.2/3h) 17 -- -- --
11:00 16.0 15.5 10.2 NNE 13.0 -- 16.7 68 1025.5(-1.5/3h) 16 -- -- --
09:00 15.2 14.9 7.9 NE 9.3 -- 14.8 62 1026.2(-1.3/3h) 18 -- -- --
08:00 13.2 12.9 7.8 ENE 7.4 -- 11.1 70 1027(-0.6/3h) 18 -- -- --
07:00 11.7 11.1 7.4 NE 7.4 -- 13.0 75 1027.4(-0.3/3h) 17 -- -- --
06:00 10.1 9.3 6.6 ENE 7.4 -- 13.0 79 1027.5(-0.3/3h) 16 -- -- --
05:00 9.1 8.1 6.5 ENE 7.4 -- 11.1 84 1027.7(-0.3/3h) 15 -- -- --
04:00 8.5 7.9 6.5 NE 5.6 -- 9.3 87 1027.7(-0.7/3h) 16 -- -- --
03:00 8.9 7.9 6.7 NE 7.4 -- 13.0 86 1028(-0.8/3h) 16 -- -- --
02:00 9.5 9 7.1 ENE 5.6 -- 9.3 85 1028(-0.9/3h) 16 -- -- --
01:00 10.0 9.6 7.3 ENE 5.6 -- 13.0 83 1028.5(-0.5/3h) 16 -- -- --
00:00 10.8 10.1 7.4 NE 7.4 -- 24.1 79 1028.7(-0.4/3h) 17 -- -- --

1 Coordinated Universal Time. Actuellement il est 13:00 locale et 11:00 UTC.

2 Le vent souffle depuis la direction indiquée vers la direction oposée.

3 Les rafales max. sont disponible 40 min après l'heure du relevé.

4 Pour les stations d'altitude (plus de 600m) le géopotentiel du niveau le plus proche de la pression obligatoire est indiqué.

5 Les stations disposant d'un diffuseur peuvent indiquer "trace". Cela signifie que des précipitations ont touchés le sol mais que la quantité est inférieure à 0.1 mm.

Récapitulatif de la journée
Température [°C] Vent [km/h] Ensoleillement4 [h] Precipitations totale5 [mm] Pression [Hpa]
Min1 Max.2 Moy.3 Max. Min Max.
8.4 16.4 0 24.1 0 h 0 min 0 1021.8 1028.7

1 Température minimale relevée entre 18:00 UTC la veille et 18:00 UTC le jour donné.

2 Température maximale relevée entre 06:00 UTC le jour donné et 06:00 UTC le lendemain.

3 Vent moyen de la journée basé sur les relevés horaires.

4 Ensoleillement en heures relevé entre 06:00 UTC la veille et 06:00 UTC le jour donné.

5 Précipitations totales tombées entre 06:00 UTC la jour donné et 06:00 UTC le lendemain.

Graphiques horaires